Time;durP1;ratioP1;P1;durP2;ratioP2;P2;SDS_P1;SDS_P2;PMS_P1;PMS_P2;Temp;Humidity;BMP_temperature;BMP_pressure;BME280_temperature;BME280_humidity;BME280_pressure;Samples;Min_cycle;Max_cycle;Signal;HPM_P1;HPM_P2
2021/07/12 00:01:08;;;;;;;4.00;3.00;;;;;;;;;;5025600;28;20044;-40
2021/07/12 00:03:35;;;;;;;4.40;3.22;;;;;;;;;;5019999;28;20732;-40
2021/07/12 00:06:02;;;;;;;4.95;2.97;;;;;;;;;;5031185;28;20132;-40
2021/07/12 00:08:28;;;;;;;6.63;3.63;;;;;;;;;;5032480;28;20053;-45
2021/07/12 00:10:55;;;;;;;5.57;3.78;;;;;;;;;;5016715;28;20064;-40
2021/07/12 00:13:22;;;;;;;4.93;3.40;;;;;;;;;;5021733;28;20046;-41
2021/07/12 00:15:49;;;;;;;5.20;3.80;;;;;;;;;;5030797;28;20045;-43
2021/07/12 00:18:16;;;;;;;5.50;3.55;;;;;;;;;;5025755;28;20049;-40
2021/07/12 00:20:43;;;;;;;4.57;3.22;;;;;;;;;;5022262;28;20450;-40
2021/07/12 00:23:09;;;;;;;4.35;3.40;;;;;;;;;;5031877;28;20048;-42
2021/07/12 00:25:36;;;;;;;6.47;3.30;;;;;;;;;;5013269;28;20044;-42
2021/07/12 00:28:03;;;;;;;4.22;2.97;;;;;;;;;;5014562;28;20049;-40
2021/07/12 00:30:30;;;;;;;5.72;3.30;;;;;;;;;;5026686;28;20048;-40
2021/07/12 00:32:57;;;;;;;4.75;3.22;;;;;;;;;;5040559;28;20079;-45
2021/07/12 00:35:24;;;;;;;4.05;2.95;;;;;;;;;;5029022;28;20141;-42
2021/07/12 00:37:51;;;;;;;4.60;3.22;;;;;;;;;;5028842;28;20302;-40
2021/07/12 00:40:19;;;;;;;4.57;3.60;;;;;;;;;;5030135;28;20069;-40
2021/07/12 00:42:46;;;;;;;4.03;3.20;;;;;;;;;;5024504;28;20038;-42
2021/07/12 00:45:18;;;;;;;4.30;3.28;;;;;;;;;;5031285;28;20111;-40
2021/07/12 00:47:47;;;;;;;4.93;3.33;;;;;;;;;;5063151;28;20046;-39
2021/07/12 00:50:14;;;;;;;4.82;3.70;;;;;;;;;;5030620;28;20041;-45
2021/07/12 00:52:41;;;;;;;4.55;3.45;;;;;;;;;;5013633;28;20062;-40
2021/07/12 00:55:29;;;;;;;4.47;3.65;;;;;;;;;;5021070;28;20042;-40
2021/07/12 00:57:57;;;;;;;4.78;3.67;;;;;;;;;;5043939;28;20053;-40
2021/07/12 01:00:25;;;;;;;5.18;3.65;;;;;;;;;;5022055;28;20344;-39
2021/07/12 01:02:52;;;;;;;6.72;3.70;;;;;;;;;;5027408;28;20045;-40
2021/07/12 01:05:22;;;;;;;4.50;3.60;;;;;;;;;;5029172;28;20052;-40
2021/07/12 01:07:53;;;;;;;4.40;3.53;;;;;;;;;;5021493;28;20041;-41
2021/07/12 01:10:21;;;;;;;4.72;3.47;;;;;;;;;;5013560;28;20072;-40
2021/07/12 01:12:57;;;;;;;5.07;3.70;;;;;;;;;;5031243;28;20518;-40
2021/07/12 01:15:26;;;;;;;5.72;3.55;;;;;;;;;;5031363;28;20399;-43
2021/07/12 01:17:58;;;;;;;;;;;;;;;;;;5022891;28;20426;-40
2021/07/12 01:20:42;;;;;;;4.25;3.10;;;;;;;;;;5017620;28;19925;-43
2021/07/12 01:23:12;;;;;;;4.80;3.58;;;;;;;;;;5012912;28;20070;-47
2021/07/12 01:26:11;;;;;;;5.80;3.17;;;;;;;;;;5028845;28;20033;-40
2021/07/12 01:28:44;;;;;;;4.18;3.20;;;;;;;;;;5018103;28;20049;-40
2021/07/12 01:31:13;;;;;;;4.55;3.50;;;;;;;;;;5031189;28;20529;-41
2021/07/12 01:33:46;;;;;;;5.25;3.28;;;;;;;;;;5020243;28;20075;-42
2021/07/12 01:36:20;;;;;;;4.00;3.28;;;;;;;;;;5017851;28;20069;-40
2021/07/12 01:39:03;;;;;;;4.80;3.38;;;;;;;;;;5028934;28;20065;-42
2021/07/12 01:41:47;;;;;;;4.53;3.60;;;;;;;;;;5029588;28;20038;-40
2021/07/12 01:44:33;;;;;;;4.50;3.38;;;;;;;;;;5029868;28;20430;-40
2021/07/12 01:47:09;;;;;;;3.75;3.00;;;;;;;;;;5030452;28;20049;-40
2021/07/12 01:49:49;;;;;;;4.25;3.47;;;;;;;;;;5025103;28;20038;-40
2021/07/12 01:52:23;;;;;;;6.35;3.40;;;;;;;;;;5027551;28;20400;-44
2021/07/12 01:54:55;;;;;;;4.45;3.45;;;;;;;;;;5025634;28;20505;-43
2021/07/12 01:57:25;;;;;;;4.18;3.13;;;;;;;;;;5028681;28;20107;-44
2021/07/12 01:59:59;;;;;;;5.45;3.88;;;;;;;;;;5029398;28;20052;-40
2021/07/12 02:02:37;;;;;;;5.57;3.55;;;;;;;;;;5019236;28;20104;-43
2021/07/12 02:05:19;;;;;;;4.30;3.60;;;;;;;;;;5030896;28;20061;-43
2021/07/12 02:07:47;;;;;;;4.85;3.33;;;;;;;;;;5030658;28;20041;-40
2021/07/12 02:10:18;;;;;;;6.28;4.38;;;;;;;;;;5027942;28;20041;-42
2021/07/12 02:12:51;;;;;;;4.20;3.30;;;;;;;;;;5029073;28;20037;-43
2021/07/12 02:15:19;;;;;;;5.43;3.35;;;;;;;;;;5030224;28;20038;-44
2021/07/12 02:17:50;;;;;;;4.53;3.35;;;;;;;;;;5027561;28;20095;-40
2021/07/12 02:20:30;;;;;;;4.60;3.60;;;;;;;;;;5017532;28;20038;-41
2021/07/12 02:22:56;;;;;;;6.00;3.78;;;;;;;;;;5011478;28;20070;-40
2021/07/12 02:25:26;;;;;;;4.03;3.25;;;;;;;;;;5027606;28;20152;-40
2021/07/12 02:27:54;;;;;;;5.38;3.92;;;;;;;;;;5043083;28;20519;-44
2021/07/12 02:30:22;;;;;;;4.55;3.70;;;;;;;;;;5015482;28;20482;-45
2021/07/12 02:32:50;;;;;;;5.20;3.92;;;;;;;;;;5028672;28;20038;-45
2021/07/12 02:35:17;;;;;;;5.65;3.70;;;;;;;;;;5030242;28;20531;-43
2021/07/12 02:37:46;;;;;;;6.13;3.70;;;;;;;;;;5029285;28;20484;-45
2021/07/12 02:40:15;;;;;;;5.53;4.10;;;;;;;;;;5033000;28;20087;-42
2021/07/12 02:42:44;;;;;;;7.20;3.92;;;;;;;;;;5031550;28;20088;-40
2021/07/12 02:45:15;;;;;;;4.78;3.42;;;;;;;;;;5033745;28;20185;-40
2021/07/12 02:47:45;;;;;;;3.92;3.50;;;;;;;;;;5033670;28;20049;-40
2021/07/12 02:50:12;;;;;;;4.72;3.75;;;;;;;;;;5032433;28;20125;-45
2021/07/12 02:52:59;;;;;;;5.35;3.80;;;;;;;;;;5032692;28;20042;-40
2021/07/12 02:55:26;;;;;;;6.85;4.10;;;;;;;;;;5031536;28;20084;-44
2021/07/12 02:57:53;;;;;;;5.50;3.80;;;;;;;;;;5025444;28;20041;-41
2021/07/12 03:00:22;;;;;;;4.65;4.00;;;;;;;;;;5032930;28;20113;-40
2021/07/12 03:02:49;;;;;;;5.45;3.90;;;;;;;;;;5026641;28;20448;-40
2021/07/12 03:05:17;;;;;;;4.72;4.13;;;;;;;;;;5033140;28;20037;-41
2021/07/12 03:07:50;;;;;;;6.07;4.20;;;;;;;;;;5028003;28;20511;-40
2021/07/12 03:10:17;;;;;;;5.25;3.65;;;;;;;;;;5022357;28;20046;-40
2021/07/12 03:12:52;;;;;;;5.20;3.38;;;;;;;;;;5024137;28;20060;-44
2021/07/12 03:15:29;;;;;;;4.85;3.50;;;;;;;;;;5020724;28;20040;-40
2021/07/12 03:18:00;;;;;;;6.30;3.80;;;;;;;;;;5017103;28;20116;-41
2021/07/12 03:20:28;;;;;;;5.75;4.15;;;;;;;;;;5032477;28;20046;-44
2021/07/12 03:22:56;;;;;;;4.63;3.45;;;;;;;;;;5020816;28;20041;-46
2021/07/12 03:25:24;;;;;;;6.55;3.83;;;;;;;;;;5027022;28;20044;-40
2021/07/12 03:27:55;;;;;;;8.00;4.28;;;;;;;;;;5020204;28;20029;-41
2021/07/12 03:30:24;;;;;;;6.18;4.57;;;;;;;;;;5021310;28;20045;-41
2021/07/12 03:32:52;;;;;;;7.25;4.60;;;;;;;;;;5019934;28;20044;-41
2021/07/12 03:35:23;;;;;;;5.63;3.97;;;;;;;;;;5032675;28;20044;-41
2021/07/12 03:37:54;;;;;;;6.15;4.63;;;;;;;;;;5043548;28;20411;-45
2021/07/12 03:40:22;;;;;;;5.15;4.38;;;;;;;;;;5031864;28;20049;-40
2021/07/12 03:42:49;;;;;;;5.03;3.80;;;;;;;;;;5027866;28;20076;-41
2021/07/12 03:45:17;;;;;;;6.40;3.90;;;;;;;;;;5013975;28;20064;-41
2021/07/12 03:47:50;;;;;;;6.72;3.95;;;;;;;;;;5031471;28;20105;-42
2021/07/12 03:50:17;;;;;;;5.90;4.22;;;;;;;;;;5060250;28;20128;-41
2021/07/12 03:52:44;;;;;;;5.63;4.00;;;;;;;;;;5031566;28;20557;-43
2021/07/12 03:55:12;;;;;;;5.10;3.88;;;;;;;;;;5027514;28;20037;-41
2021/07/12 03:57:39;;;;;;;5.70;4.00;;;;;;;;;;5030537;28;20053;-42
2021/07/12 04:00:07;;;;;;;4.85;4.20;;;;;;;;;;5032194;28;20480;-40
2021/07/12 04:02:38;;;;;;;5.35;4.50;;;;;;;;;;5018687;28;20053;-41
2021/07/12 04:05:06;;;;;;;5.72;4.20;;;;;;;;;;5031048;28;20034;-42
2021/07/12 04:07:33;;;;;;;7.18;4.65;;;;;;;;;;5032198;28;20042;-45
2021/07/12 04:09:59;;;;;;;6.72;4.60;;;;;;;;;;5021400;22;20426;-46
2021/07/12 04:12:26;;;;;;;6.38;4.38;;;;;;;;;;5009909;28;20046;-48
2021/07/12 04:14:53;;;;;;;5.97;4.53;;;;;;;;;;5011280;28;20045;-48
2021/07/12 04:17:20;;;;;;;5.53;3.97;;;;;;;;;;5008213;28;20056;-47
2021/07/12 04:19:52;;;;;;;4.80;3.90;;;;;;;;;;5004178;28;20092;-47
2021/07/12 04:22:19;;;;;;;4.97;4.05;;;;;;;;;;5010709;28;20049;-46
2021/07/12 04:24:46;;;;;;;6.47;4.95;;;;;;;;;;5007460;28;20112;-50
2021/07/12 04:27:12;;;;;;;6.32;4.80;;;;;;;;;;5012543;28;20510;-47
2021/07/12 04:29:39;;;;;;;5.47;4.75;;;;;;;;;;5011478;28;20042;-46
2021/07/12 04:32:06;;;;;;;5.43;4.70;;;;;;;;;;4996696;28;20038;-48
2021/07/12 04:34:33;;;;;;;5.30;4.20;;;;;;;;;;5001270;28;20045;-46
2021/07/12 04:37:01;;;;;;;6.00;5.10;;;;;;;;;;5010674;28;20056;-47
2021/07/12 04:39:27;;;;;;;5.88;4.60;;;;;;;;;;5006448;28;20046;-48
2021/07/12 04:41:54;;;;;;;6.07;4.90;;;;;;;;;;5002707;28;20535;-48
2021/07/12 04:44:21;;;;;;;6.60;4.60;;;;;;;;;;5012683;28;20073;-47
2021/07/12 04:46:49;;;;;;;8.10;5.55;;;;;;;;;;5011878;28;20117;-47
2021/07/12 04:49:16;;;;;;;6.20;5.22;;;;;;;;;;5008404;28;20042;-47
2021/07/12 04:51:43;;;;;;;7.95;5.43;;;;;;;;;;5010825;28;20049;-49
2021/07/12 04:54:12;;;;;;;7.38;4.97;;;;;;;;;;5007517;28;20129;-47
2021/07/12 04:56:39;;;;;;;6.28;4.70;;;;;;;;;;5011395;28;20053;-46
2021/07/12 04:59:09;;;;;;;5.88;4.80;;;;;;;;;;5010637;28;20140;-46
2021/07/12 05:01:36;;;;;;;7.03;5.13;;;;;;;;;;5009979;28;20048;-47
2021/07/12 05:04:14;;;;;;;7.68;5.20;;;;;;;;;;5040493;28;20431;-49
2021/07/12 05:06:41;;;;;;;5.90;4.88;;;;;;;;;;5038960;28;20041;-47
2021/07/12 05:09:07;;;;;;;6.47;4.13;;;;;;;;;;5046639;28;20041;-51
2021/07/12 05:11:34;;;;;;;6.68;5.03;;;;;;;;;;5036978;28;20042;-47
2021/07/12 05:14:01;;;;;;;8.02;4.68;;;;;;;;;;5040826;28;20060;-50
2021/07/12 05:16:28;;;;;;;5.65;4.78;;;;;;;;;;5047209;28;20038;-47
2021/07/12 05:18:55;;;;;;;4.80;4.10;;;;;;;;;;5045306;28;20087;-47
2021/07/12 05:21:23;;;;;;;5.43;4.45;;;;;;;;;;5028638;28;20396;-46
2021/07/12 05:23:50;;;;;;;5.75;4.32;;;;;;;;;;5039477;28;20821;-47
2021/07/12 05:26:17;;;;;;;5.93;4.07;;;;;;;;;;5047067;28;20124;-53
2021/07/12 05:28:44;;;;;;;5.22;4.10;;;;;;;;;;5046044;28;20048;-51
2021/07/12 05:31:11;;;;;;;4.88;4.10;;;;;;;;;;5037856;28;20464;-50
2021/07/12 05:33:37;;;;;;;5.68;4.72;;;;;;;;;;5045418;28;20045;-50
2021/07/12 05:36:04;;;;;;;5.53;4.25;;;;;;;;;;5047500;28;20504;-47
2021/07/12 05:38:31;;;;;;;5.68;4.25;;;;;;;;;;5046972;28;20371;-51
2021/07/12 05:40:57;;;;;;;5.85;4.93;;;;;;;;;;5036064;28;20046;-50
2021/07/12 05:43:24;;;;;;;6.18;5.20;;;;;;;;;;5034339;28;20478;-47
2021/07/12 05:45:51;;;;;;;7.47;5.15;;;;;;;;;;5032326;28;20072;-43
2021/07/12 05:48:18;;;;;;;6.85;4.90;;;;;;;;;;5028670;28;20129;-43
2021/07/12 05:50:45;;;;;;;5.88;4.82;;;;;;;;;;5034586;28;20068;-50
2021/07/12 05:53:14;;;;;;;5.55;4.50;;;;;;;;;;5043997;28;20362;-49
2021/07/12 05:55:41;;;;;;;7.15;4.65;;;;;;;;;;5042520;28;20049;-48
2021/07/12 05:58:08;;;;;;;5.75;4.30;;;;;;;;;;5044561;28;20494;-47
2021/07/12 06:00:35;;;;;;;7.38;4.20;;;;;;;;;;5044629;28;20044;-48
2021/07/12 06:03:02;;;;;;;8.63;4.90;;;;;;;;;;5044733;28;20068;-45
2021/07/12 06:05:28;;;;;;;5.03;3.85;;;;;;;;;;5032987;28;20033;-47
2021/07/12 06:07:56;;;;;;;4.80;3.78;;;;;;;;;;5046852;28;20037;-46
2021/07/12 06:10:23;;;;;;;5.05;3.95;;;;;;;;;;5044535;28;20414;-48
2021/07/12 06:12:50;;;;;;;5.22;3.92;;;;;;;;;;5031750;28;20060;-45
2021/07/12 06:15:17;;;;;;;6.40;3.70;;;;;;;;;;5034598;28;20178;-44
2021/07/12 06:17:45;;;;;;;4.78;3.88;;;;;;;;;;5033337;28;20132;-44
2021/07/12 06:20:17;;;;;;;6.18;3.75;;;;;;;;;;5033424;28;20095;-44
2021/07/12 06:22:45;;;;;;;4.57;2.90;;;;;;;;;;5032174;28;20049;-43
2021/07/12 06:25:12;;;;;;;4.13;3.40;;;;;;;;;;5032117;28;20037;-47
2021/07/12 06:27:40;;;;;;;5.00;3.15;;;;;;;;;;5032746;28;20057;-48
2021/07/12 06:30:07;;;;;;;4.85;2.80;;;;;;;;;;5031628;28;20041;-44
2021/07/12 06:32:34;;;;;;;4.97;3.28;;;;;;;;;;5022744;28;20137;-52
2021/07/12 06:35:02;;;;;;;4.07;2.88;;;;;;;;;;5024192;28;20133;-44
2021/07/12 06:37:29;;;;;;;7.32;2.80;;;;;;;;;;5021300;28;20041;-43
2021/07/12 06:39:56;;;;;;;6.90;2.60;;;;;;;;;;5021681;28;20498;-44
2021/07/12 06:42:23;;;;;;;4.45;2.70;;;;;;;;;;5027321;28;20064;-45
2021/07/12 06:44:50;;;;;;;4.63;2.35;;;;;;;;;;5022952;28;20045;-53
2021/07/12 06:47:17;;;;;;;5.07;2.28;;;;;;;;;;5028161;28;20462;-50
2021/07/12 06:49:47;;;;;;;4.18;1.88;;;;;;;;;;5027633;28;20037;-46
2021/07/12 06:52:14;;;;;;;3.08;2.20;;;;;;;;;;5028201;28;20044;-53
2021/07/12 06:54:40;;;;;;;2.40;1.90;;;;;;;;;;5023725;28;20671;-48
2021/07/12 06:57:07;;;;;;;3.08;2.25;;;;;;;;;;5028471;28;20076;-48
2021/07/12 06:59:34;;;;;;;3.60;2.05;;;;;;;;;;5026770;28;20041;-44
2021/07/12 07:02:02;;;;;;;4.40;2.28;;;;;;;;;;5030866;28;20085;-48
2021/07/12 07:04:28;;;;;;;4.07;2.10;;;;;;;;;;5032214;28;20080;-47
2021/07/12 07:06:55;;;;;;;3.33;2.03;;;;;;;;;;5034007;28;20499;-46
2021/07/12 07:09:28;;;;;;;3.38;2.05;;;;;;;;;;5032426;28;20398;-46
2021/07/12 07:11:54;;;;;;;3.75;2.05;;;;;;;;;;5034907;28;20442;-49
2021/07/12 07:14:21;;;;;;;5.70;1.98;;;;;;;;;;5031884;28;20111;-50
2021/07/12 07:16:48;;;;;;;5.53;2.28;;;;;;;;;;5020864;28;20103;-51
2021/07/12 07:19:15;;;;;;;3.03;2.00;;;;;;;;;;5019536;28;20034;-50
2021/07/12 07:21:41;;;;;;;4.00;2.03;;;;;;;;;;5036071;28;20047;-46
2021/07/12 07:24:08;;;;;;;3.47;1.73;;;;;;;;;;5020018;28;20128;-47
2021/07/12 07:26:35;;;;;;;3.10;1.75;;;;;;;;;;5025871;28;20124;-48
2021/07/12 07:29:02;;;;;;;2.67;1.90;;;;;;;;;;5032096;28;20042;-48
2021/07/12 07:31:29;;;;;;;3.65;1.80;;;;;;;;;;5034429;28;20129;-48
2021/07/12 07:33:56;;;;;;;2.97;1.90;;;;;;;;;;5028148;28;20180;-49
2021/07/12 07:36:23;;;;;;;3.13;1.65;;;;;;;;;;5032019;28;20073;-46
2021/07/12 07:38:50;;;;;;;3.42;1.95;;;;;;;;;;5033865;28;20064;-47
2021/07/12 07:41:19;;;;;;;4.80;1.83;;;;;;;;;;5032249;28;20046;-45
2021/07/12 07:43:46;;;;;;;9.23;2.17;;;;;;;;;;5027925;28;20063;-47
2021/07/12 07:46:13;;;;;;;2.97;1.77;;;;;;;;;;5036762;28;20409;-45
2021/07/12 07:48:40;;;;;;;4.68;2.13;;;;;;;;;;5026516;28;20446;-44
2021/07/12 07:51:07;;;;;;;3.22;1.70;;;;;;;;;;5025157;28;20182;-46
2021/07/12 07:53:35;;;;;;;3.70;1.80;;;;;;;;;;5029595;28;20127;-44
2021/07/12 07:56:02;;;;;;;4.15;1.90;;;;;;;;;;5036932;28;20066;-45
2021/07/12 07:58:30;;;;;;;2.92;1.50;;;;;;;;;;5033832;28;20165;-48
2021/07/12 08:00:56;;;;;;;2.38;1.50;;;;;;;;;;5030438;28;20116;-47
2021/07/12 08:03:23;;;;;;;2.70;1.60;;;;;;;;;;5025690;28;20078;-50
2021/07/12 08:05:50;;;;;;;2.88;1.40;;;;;;;;;;5032371;28;20128;-46
2021/07/12 08:08:17;;;;;;;3.40;1.63;;;;;;;;;;5025534;28;20555;-48
2021/07/12 08:10:43;;;;;;;2.45;1.40;;;;;;;;;;5030028;28;20045;-46
2021/07/12 08:13:10;;;;;;;2.65;1.60;;;;;;;;;;5029065;28;20045;-46
2021/07/12 08:15:37;;;;;;;2.30;1.50;;;;;;;;;;5044571;28;20056;-47
2021/07/12 08:18:04;;;;;;;3.15;1.60;;;;;;;;;;5019755;28;20195;-51
2021/07/12 08:20:31;;;;;;;2.75;1.40;;;;;;;;;;5017841;28;20574;-47
2021/07/12 08:22:58;;;;;;;2.20;1.52;;;;;;;;;;5026972;28;20104;-50
2021/07/12 08:25:25;;;;;;;2.22;1.60;;;;;;;;;;5026190;28;20068;-46
2021/07/12 08:27:52;;;;;;;3.05;1.65;;;;;;;;;;5023300;28;20124;-46
2021/07/12 08:30:19;;;;;;;4.80;1.85;;;;;;;;;;5021743;28;20061;-47
2021/07/12 08:32:46;;;;;;;2.35;1.55;;;;;;;;;;5023763;28;20037;-48
2021/07/12 08:35:15;;;;;;;3.75;1.88;;;;;;;;;;5027797;28;20038;-51
2021/07/12 08:37:42;;;;;;;3.10;1.70;;;;;;;;;;5024914;28;20041;-49
2021/07/12 08:40:09;;;;;;;2.67;1.63;;;;;;;;;;5023378;28;20154;-49
2021/07/12 08:42:36;;;;;;;2.78;1.50;;;;;;;;;;5022934;28;20042;-47
2021/07/12 08:45:04;;;;;;;11.88;5.43;;;;;;;;;;5032068;28;20034;-48
2021/07/12 08:47:31;;;;;;;3.17;1.80;;;;;;;;;;5014155;28;20046;-49
2021/07/12 08:49:58;;;;;;;2.83;1.45;;;;;;;;;;5016351;28;20096;-48
2021/07/12 08:52:26;;;;;;;2.00;1.40;;;;;;;;;;5026216;28;20068;-47
2021/07/12 08:54:53;;;;;;;2.80;1.60;;;;;;;;;;5021091;28;20053;-47
2021/07/12 08:57:21;;;;;;;1.77;1.20;;;;;;;;;;5022269;28;20044;-47
2021/07/12 08:59:47;;;;;;;3.20;1.17;;;;;;;;;;5024969;28;20507;-49
2021/07/12 09:02:19;;;;;;;2.03;1.20;;;;;;;;;;5026141;28;20051;-50
2021/07/12 09:04:47;;;;;;;2.38;1.33;;;;;;;;;;5027329;28;20475;-49
2021/07/12 09:07:14;;;;;;;2.70;1.52;;;;;;;;;;5033467;28;20037;-49
2021/07/12 09:09:55;;;;;;;1.90;1.20;;;;;;;;;;5026620;28;20037;-51
2021/07/12 09:12:22;;;;;;;1.45;1.10;;;;;;;;;;5026992;28;20487;-50
2021/07/12 09:15:00;;;;;;;2.50;1.35;;;;;;;;;;5020176;28;20144;-48
2021/07/12 09:17:31;;;;;;;2.13;1.23;;;;;;;;;;5024260;28;20049;-50
2021/07/12 09:20:00;;;;;;;3.10;1.75;;;;;;;;;;5022670;28;20037;-51
2021/07/12 09:22:34;;;;;;;1.60;1.30;;;;;;;;;;5020353;28;20128;-50
2021/07/12 09:25:04;;;;;;;1.50;1.30;;;;;;;;;;5019246;28;20061;-51
2021/07/12 09:27:32;;;;;;;1.80;1.40;;;;;;;;;;5028954;28;20128;-51
2021/07/12 09:30:00;;;;;;;2.47;1.13;;;;;;;;;;5013877;28;20041;-52
2021/07/12 09:32:28;;;;;;;2.15;1.55;;;;;;;;;;5023552;28;20045;-52
2021/07/12 09:34:57;;;;;;;1.33;1.10;;;;;;;;;;5019396;28;20491;-50
2021/07/12 09:37:24;;;;;;;3.08;1.40;;;;;;;;;;5011391;28;20080;-51
2021/07/12 09:39:51;;;;;;;6.80;1.40;;;;;;;;;;5016334;28;20052;-49
2021/07/12 09:42:30;;;;;;;3.50;1.52;;;;;;;;;;5014322;28;20073;-47
2021/07/12 09:45:02;;;;;;;1.58;1.20;;;;;;;;;;5016551;28;20052;-48
2021/07/12 09:47:30;;;;;;;2.45;1.40;;;;;;;;;;5016990;28;20545;-49
2021/07/12 09:50:00;;;;;;;3.05;1.15;;;;;;;;;;5023271;28;20045;-49
2021/07/12 09:52:42;;;;;;;1.92;1.20;;;;;;;;;;5032763;28;20049;-48
2021/07/12 09:55:26;;;;;;;2.40;1.35;;;;;;;;;;5023569;28;20046;-49
2021/07/12 09:58:05;;;;;;;1.67;1.30;;;;;;;;;;5014664;28;20050;-57
2021/07/12 10:00:32;;;;;;;3.55;3.10;;;;;;;;;;5019216;28;20129;-49
2021/07/12 10:02:59;;;;;;;1.95;1.30;;;;;;;;;;5019401;28;20049;-51
2021/07/12 10:05:26;;;;;;;3.03;2.30;;;;;;;;;;5033678;28;20045;-51
2021/07/12 10:07:53;;;;;;;1.85;1.40;;;;;;;;;;5030204;28;20034;-49
2021/07/12 10:10:19;;;;;;;2.70;1.60;;;;;;;;;;5015562;23;20146;-46
2021/07/12 10:12:47;;;;;;;2.20;1.70;;;;;;;;;;5007283;28;20038;-48
2021/07/12 10:15:15;;;;;;;1.65;1.15;;;;;;;;;;4994126;28;20129;-44
2021/07/12 10:17:43;;;;;;;2.22;1.42;;;;;;;;;;4994227;28;20042;-46
2021/07/12 10:20:11;;;;;;;2.55;1.10;;;;;;;;;;4982280;28;20121;-45
2021/07/12 10:22:39;;;;;;;1.63;1.20;;;;;;;;;;4992802;28;20054;-45
2021/07/12 10:25:10;;;;;;;2.33;1.17;;;;;;;;;;4981331;28;20042;-45
2021/07/12 10:27:46;;;;;;;2.00;1.50;;;;;;;;;;4989469;28;20043;-45
2021/07/12 10:30:20;;;;;;;1.50;1.20;;;;;;;;;;4992577;28;20046;-45
2021/07/12 10:32:51;;;;;;;3.10;1.58;;;;;;;;;;4981307;28;20133;-45
2021/07/12 10:35:34;;;;;;;2.97;1.60;;;;;;;;;;4995892;28;20614;-45
2021/07/12 10:38:01;;;;;;;1.70;1.10;;;;;;;;;;5005899;28;20038;-43
2021/07/12 10:40:43;;;;;;;2.60;1.42;;;;;;;;;;4993392;28;20475;-45
2021/07/12 10:43:10;;;;;;;2.00;1.27;;;;;;;;;;4989140;28;20130;-44
2021/07/12 10:45:40;;;;;;;2.22;1.50;;;;;;;;;;4991260;28;20046;-44
2021/07/12 10:48:12;;;;;;;3.15;1.40;;;;;;;;;;4993955;28;20038;-44
2021/07/12 10:50:43;;;;;;;1.92;1.45;;;;;;;;;;4993419;28;20491;-43
2021/07/12 10:53:16;;;;;;;1.63;1.20;;;;;;;;;;4973813;28;20053;-45
2021/07/12 10:55:45;;;;;;;2.70;1.50;;;;;;;;;;4974134;28;20538;-43
2021/07/12 10:58:21;;;;;;;1.95;1.30;;;;;;;;;;4974012;28;20047;-44
2021/07/12 11:00:49;;;;;;;2.50;1.48;;;;;;;;;;4992697;28;20046;-44
2021/07/12 11:03:34;;;;;;;1.98;1.35;;;;;;;;;;4987849;28;20057;-45
2021/07/12 11:06:02;;;;;;;2.65;1.40;;;;;;;;;;4992615;28;20084;-50
2021/07/12 11:08:49;;;;;;;2.47;1.52;;;;;;;;;;4993317;28;20042;-45
2021/07/12 11:11:18;;;;;;;2.75;1.40;;;;;;;;;;4989058;28;20050;-47
2021/07/12 11:13:49;;;;;;;5.07;1.50;;;;;;;;;;4982183;28;20054;-46
2021/07/12 11:16:17;;;;;;;2.95;1.60;;;;;;;;;;4973563;28;20118;-47
2021/07/12 11:18:44;;;;;;;4.22;1.63;;;;;;;;;;4974112;28;20051;-47
2021/07/12 11:21:12;;;;;;;3.28;1.60;;;;;;;;;;4993271;28;20618;-46
2021/07/12 11:23:40;;;;;;;5.18;1.58;;;;;;;;;;4972279;28;20039;-47
2021/07/12 11:26:27;;;;;;;2.83;1.45;;;;;;;;;;4992301;28;20049;-45
2021/07/12 11:28:56;;;;;;;2.67;1.35;;;;;;;;;;4972924;28;20105;-45
2021/07/12 11:31:41;;;;;;;2.83;1.67;;;;;;;;;;4987331;28;20038;-46
2021/07/12 11:34:13;;;;;;;3.00;1.40;;;;;;;;;;4986122;28;20042;-46
2021/07/12 11:37:00;;;;;;;3.70;1.50;;;;;;;;;;4993082;28;20097;-46
2021/07/12 11:39:38;;;;;;;8.18;1.65;;;;;;;;;;5001555;28;20067;-47
2021/07/12 11:42:11;;;;;;;2.88;1.65;;;;;;;;;;4980754;28;20046;-49
2021/07/12 11:44:43;;;;;;;2.50;1.65;;;;;;;;;;4979514;28;20042;-47
2021/07/12 11:47:14;;;;;;;3.60;1.90;;;;;;;;;;4992216;28;20042;-47
2021/07/12 11:49:47;;;;;;;3.35;1.70;;;;;;;;;;4987588;28;20716;-46
2021/07/12 11:52:14;;;;;;;3.40;1.95;;;;;;;;;;4990547;28;20433;-49
2021/07/12 11:54:41;;;;;;;3.75;1.73;;;;;;;;;;4986166;28;20484;-45
2021/07/12 11:57:12;;;;;;;2.33;1.70;;;;;;;;;;4991403;28;20049;-47
2021/07/12 11:59:39;;;;;;;2.78;1.92;;;;;;;;;;4989502;28;20093;-47
2021/07/12 12:02:14;;;;;;;3.60;1.80;;;;;;;;;;4987238;28;20061;-47
2021/07/12 12:04:45;;;;;;;2.67;1.90;;;;;;;;;;4989161;28;20034;-46
2021/07/12 12:07:18;;;;;;;5.65;1.83;;;;;;;;;;4992365;28;20587;-50
2021/07/12 12:09:52;;;;;;;2.08;1.83;;;;;;;;;;4989211;28;20042;-46
2021/07/12 12:12:20;;;;;;;3.25;1.98;;;;;;;;;;4982361;28;20043;-47
2021/07/12 12:14:47;;;;;;;2.13;1.80;;;;;;;;;;4992628;28;20054;-46
2021/07/12 12:17:13;;;;;;;3.72;1.90;;;;;;;;;;4992541;28;20133;-46
2021/07/12 12:19:40;;;;;;;2.47;2.00;;;;;;;;;;4983557;28;20471;-47
2021/07/12 12:22:21;;;;;;;2.90;2.08;;;;;;;;;;4991414;28;20074;-48
2021/07/12 12:24:52;;;;;;;5.30;2.10;;;;;;;;;;4987295;28;20034;-46
2021/07/12 12:27:18;;;;;;;3.05;1.88;;;;;;;;;;4991286;28;20038;-46
2021/07/12 12:29:46;;;;;;;2.80;2.10;;;;;;;;;;4989891;28;20057;-47
2021/07/12 12:32:33;;;;;;;2.53;1.90;;;;;;;;;;4983840;28;20149;-49
2021/07/12 12:35:06;;;;;;;3.53;1.92;;;;;;;;;;4989992;28;20228;-50
2021/07/12 12:37:34;;;;;;;;;;;;;;;;;;4990257;28;20137;-50
2021/07/12 12:40:08;;;;;;;2.95;1.95;;;;;;;;;;4990422;28;19953;-51
2021/07/12 12:42:34;;;;;;;2.28;1.95;;;;;;;;;;4998269;28;20423;-46
2021/07/12 12:45:01;;;;;;;2.83;2.10;;;;;;;;;;4987163;28;20046;-45
2021/07/12 12:47:28;;;;;;;2.42;2.00;;;;;;;;;;4990319;28;20100;-46
2021/07/12 12:49:55;;;;;;;3.85;2.30;;;;;;;;;;4991606;28;20039;-47
2021/07/12 12:52:30;;;;;;;4.45;2.03;;;;;;;;;;4991029;28;20046;-47
2021/07/12 12:55:08;;;;;;;2.78;2.00;;;;;;;;;;4989537;28;20084;-49
2021/07/12 12:57:36;;;;;;;3.92;2.08;;;;;;;;;;4993925;28;20108;-49
2021/07/12 13:00:07;;;;;;;3.10;2.15;;;;;;;;;;4989936;28;20074;-45
2021/07/12 13:02:41;;;;;;;3.97;2.03;;;;;;;;;;4991151;28;20129;-50
2021/07/12 13:05:14;;;;;;;2.80;2.10;;;;;;;;;;4992218;28;20078;-49
2021/07/12 13:07:51;;;;;;;3.35;1.90;;;;;;;;;;4992124;28;20395;-47
2021/07/12 13:10:20;;;;;;;2.88;2.00;;;;;;;;;;4992118;28;20043;-47
2021/07/12 13:12:49;;;;;;;3.20;2.03;;;;;;;;;;4981331;28;20034;-48
2021/07/12 13:15:20;;;;;;;3.78;1.90;;;;;;;;;;4992796;28;20087;-48
2021/07/12 13:17:50;;;;;;;3.38;2.00;;;;;;;;;;4992542;28;20124;-48
2021/07/12 13:20:26;;;;;;;4.00;2.20;;;;;;;;;;4986731;28;20092;-51
2021/07/12 13:22:56;;;;;;;3.10;2.20;;;;;;;;;;4990024;28;20097;-51
2021/07/12 13:25:27;;;;;;;2.70;2.05;;;;;;;;;;4991151;28;20465;-48
2021/07/12 13:27:59;;;;;;;4.10;2.00;;;;;;;;;;4992253;28;20416;-45
2021/07/12 13:30:27;;;;;;;5.28;2.42;;;;;;;;;;4994032;28;20383;-48
2021/07/12 13:32:55;;;;;;;7.05;2.10;;;;;;;;;;4988046;28;20487;-46
2021/07/12 13:35:29;;;;;;;2.53;1.95;;;;;;;;;;4993371;28;20092;-46
2021/07/12 13:38:00;;;;;;;4.10;1.95;;;;;;;;;;4991982;28;20129;-46
2021/07/12 13:40:27;;;;;;;4.00;1.92;;;;;;;;;;4987881;28;20150;-46
2021/07/12 13:42:55;;;;;;;2.88;2.00;;;;;;;;;;4984906;28;20042;-45
2021/07/12 13:45:22;;;;;;;5.38;1.90;;;;;;;;;;4976458;28;20067;-48
2021/07/12 13:47:49;;;;;;;4.38;2.60;;;;;;;;;;4990756;28;20121;-47
2021/07/12 13:50:18;;;;;;;2.38;1.85;;;;;;;;;;4989064;28;20048;-45
2021/07/12 13:52:47;;;;;;;2.97;2.03;;;;;;;;;;4993640;28;20468;-48
2021/07/12 13:55:17;;;;;;;3.38;1.60;;;;;;;;;;4977790;28;20064;-46
2021/07/12 13:57:45;;;;;;;3.63;1.80;;;;;;;;;;4984275;28;20518;-47
2021/07/12 14:00:12;;;;;;;2.40;1.80;;;;;;;;;;4995147;28;20046;-47
2021/07/12 14:02:43;;;;;;;4.15;1.60;;;;;;;;;;4992243;28;20042;-45
2021/07/12 14:05:12;;;;;;;11.77;10.63;;;;;;;;;;4994110;28;20076;-46
2021/07/12 14:07:39;;;;;;;15.95;4.32;;;;;;;;;;4996225;28;20046;-46
2021/07/12 14:10:09;;;;;;;5.47;1.90;;;;;;;;;;4993870;28;20049;-46
2021/07/12 14:12:37;;;;;;;4.38;2.55;;;;;;;;;;4981396;28;20439;-47
2021/07/12 14:15:05;;;;;;;196.68;178.30;;;;;;;;;;4995071;28;20047;-47
2021/07/12 14:17:32;;;;;;;25.65;21.27;;;;;;;;;;4994734;28;20496;-48
2021/07/12 14:19:59;;;;;;;67.72;58.65;;;;;;;;;;4984511;28;20049;-45
2021/07/12 14:22:26;;;;;;;4.97;2.63;;;;;;;;;;4994067;28;20117;-48
2021/07/12 14:24:53;;;;;;;7.88;5.53;;;;;;;;;;4980932;28;20057;-45
2021/07/12 14:27:19;;;;;;;7.28;6.03;;;;;;;;;;4978206;28;20121;-45
2021/07/12 14:29:46;;;;;;;17.38;15.63;;;;;;;;;;4994970;28;20064;-47
2021/07/12 14:32:13;;;;;;;64.93;57.15;;;;;;;;;;4994219;28;20046;-47
2021/07/12 14:34:40;;;;;;;16.60;10.27;;;;;;;;;;4992211;28;20046;-49
2021/07/12 14:37:07;;;;;;;3.72;2.80;;;;;;;;;;4994651;28;20129;-47
2021/07/12 14:39:34;;;;;;;3.20;1.90;;;;;;;;;;4994999;28;20535;-48
2021/07/12 14:42:02;;;;;;;2.60;1.75;;;;;;;;;;4988708;28;20050;-46
2021/07/12 14:44:32;;;;;;;3.60;2.47;;;;;;;;;;4977806;28;20047;-44
2021/07/12 14:46:58;;;;;;;3.90;2.35;;;;;;;;;;4993665;28;20415;-47
2021/07/12 14:49:26;;;;;;;4.00;2.17;;;;;;;;;;4992582;28;20038;-43
2021/07/12 14:51:53;;;;;;;4.90;3.10;;;;;;;;;;4991310;28;20039;-46
2021/07/12 14:54:19;;;;;;;4.75;2.20;;;;;;;;;;4989419;28;20041;-44
2021/07/12 14:56:48;;;;;;;1.67;1.30;;;;;;;;;;4985884;28;20062;-44